Time;durP1;ratioP1;P1;durP2;ratioP2;P2;SDS_P1;SDS_P2;PMS_P1;PMS_P2;Temp;Humidity;BMP_temperature;BMP_pressure;BME280_temperature;BME280_humidity;BME280_pressure;Samples;Min_cycle;Max_cycle;Signal;HPM_P1;HPM_P2
2024/01/05 00:00:43;;;;;;;6.07;3.30;;;-0.70;99.90;;;;;;5100484;28;20028;-80
2024/01/05 00:03:09;;;;;;;5.38;3.10;;;-0.70;99.90;;;;;;5069570;28;20050;-81
2024/01/05 00:05:35;;;;;;;5.18;3.03;;;-0.80;99.90;;;;;;5085277;28;20024;-81
2024/01/05 00:08:01;;;;;;;8.80;3.92;;;-0.80;99.90;;;;;;5084566;28;20062;-81
2024/01/05 00:10:27;;;;;;;7.57;3.55;;;-0.80;99.90;;;;;;5104763;28;20028;-81
2024/01/05 00:12:53;;;;;;;7.28;3.65;;;-0.80;99.90;;;;;;5084104;28;20030;-81
2024/01/05 00:15:18;;;;;;;9.77;3.33;;;-0.70;99.90;;;;;;5085658;28;20032;-82
2024/01/05 00:17:44;;;;;;;7.00;3.40;;;-0.70;99.90;;;;;;5084928;28;20028;-81
2024/01/05 00:20:11;;;;;;;6.45;3.22;;;-0.70;99.90;;;;;;5067466;28;20074;-81
2024/01/05 00:22:37;;;;;;;7.30;2.88;;;-0.70;99.90;;;;;;5083778;28;20028;-81
2024/01/05 00:25:03;;;;;;;6.25;3.55;;;-0.80;99.90;;;;;;5083840;28;20028;-82
2024/01/05 00:27:29;;;;;;;7.32;3.53;;;-0.80;99.90;;;;;;5083479;28;20078;-81
2024/01/05 00:29:55;;;;;;;6.40;3.30;;;-0.80;99.90;;;;;;5102486;28;20145;-82
2024/01/05 00:32:21;;;;;;;8.30;3.67;;;-0.80;99.90;;;;;;5083694;28;20495;-82
2024/01/05 00:34:47;;;;;;;7.07;3.67;;;-0.80;99.90;;;;;;5067285;28;20032;-81
2024/01/05 00:37:12;;;;;;;6.25;3.45;;;-0.90;99.90;;;;;;5066424;28;20032;-81
2024/01/05 00:39:38;;;;;;;6.85;3.67;;;-0.90;99.90;;;;;;5083299;28;20411;-82
2024/01/05 00:42:05;;;;;;;6.28;3.58;;;-0.90;99.90;;;;;;5082824;28;20032;-82
2024/01/05 00:44:31;;;;;;;6.10;2.92;;;-0.90;99.90;;;;;;5083129;28;20038;-81
2024/01/05 00:46:57;;;;;;;4.60;2.60;;;-1.00;99.90;;;;;;5082264;28;20107;-82
2024/01/05 00:49:22;;;;;;;6.35;2.80;;;-1.00;99.90;;;;;;5066556;28;20035;-79
2024/01/05 00:51:48;;;;;;;7.95;3.38;;;-1.00;99.90;;;;;;5085373;28;20028;-80
2024/01/05 00:54:13;;;;;;;6.28;2.95;;;-1.00;99.90;;;;;;5084236;28;20176;-80
2024/01/05 00:56:39;;;;;;;5.07;3.40;;;-1.00;99.90;;;;;;5068636;28;20032;-80
2024/01/05 00:59:08;;;;;;;7.47;3.80;;;-1.00;99.90;;;;;;5084822;28;20040;-80
2024/01/05 01:01:33;;;;;;;7.57;3.78;;;-1.10;99.90;;;;;;5083594;28;20070;-80
2024/01/05 01:03:59;;;;;;;5.95;2.80;;;-1.10;99.90;;;;;;5101943;28;20093;-80
2024/01/05 01:06:25;;;;;;;7.13;4.25;;;-1.00;99.90;;;;;;5084272;28;20051;-80
2024/01/05 01:08:51;;;;;;;6.78;3.78;;;-1.10;99.90;;;;;;5067197;28;20025;-80
2024/01/05 01:11:17;;;;;;;6.93;3.75;;;-1.10;99.90;;;;;;5082788;28;20028;-80
2024/01/05 01:13:43;;;;;;;6.97;3.70;;;-1.10;99.90;;;;;;5083376;28;20020;-80
2024/01/05 01:16:11;;;;;;;8.80;4.00;;;-1.20;99.90;;;;;;5084787;28;20024;-80
2024/01/05 01:18:37;;;;;;;12.40;5.60;;;-1.20;99.90;;;;;;5068349;28;20032;-80
2024/01/05 01:21:03;;;;;;;11.27;5.47;;;-1.30;99.90;;;;;;5067980;28;20046;-80
2024/01/05 01:23:29;;;;;;;10.93;4.53;;;-1.40;99.90;;;;;;5067887;28;20032;-80
2024/01/05 01:25:54;;;;;;;7.55;3.65;;;-1.50;99.90;;;;;;5066898;28;20024;-80
2024/01/05 01:28:20;;;;;;;7.45;3.22;;;-1.60;99.90;;;;;;5083739;28;20032;-80
2024/01/05 01:30:46;;;;;;;6.82;3.58;;;-1.60;99.90;;;;;;5067502;28;20035;-80
2024/01/05 01:33:11;;;;;;;5.22;2.35;;;-1.60;99.90;;;;;;5049437;28;20058;-79
2024/01/05 01:35:37;;;;;;;4.53;2.50;;;-1.60;99.90;;;;;;5083003;28;20043;-79
2024/01/05 01:38:03;;;;;;;3.85;2.22;;;-1.50;99.90;;;;;;5081727;28;20028;-78
2024/01/05 01:40:28;;;;;;;3.97;2.78;;;-1.40;99.90;;;;;;5082027;28;20035;-79
2024/01/05 01:42:55;;;;;;;5.00;2.50;;;-1.40;99.90;;;;;;5082260;28;20030;-79
2024/01/05 01:45:21;;;;;;;5.40;3.00;;;-1.40;99.90;;;;;;5083190;28;20020;-79
2024/01/05 01:47:47;;;;;;;5.25;2.80;;;-1.30;99.90;;;;;;5081653;28;20028;-79
2024/01/05 01:50:14;;;;;;;5.72;3.15;;;-1.30;99.90;;;;;;5082156;28;20025;-79
2024/01/05 01:52:42;;;;;;;8.77;3.80;;;-1.40;99.90;;;;;;5099746;28;20029;-79
2024/01/05 01:55:09;;;;;;;5.03;3.00;;;-1.40;99.90;;;;;;5081339;28;20528;-79
2024/01/05 01:57:37;;;;;;;6.65;3.15;;;-1.40;99.90;;;;;;5099125;28;20043;-79
2024/01/05 02:00:03;;;;;;;8.95;3.25;;;-1.40;99.90;;;;;;5081217;28;20377;-81
2024/01/05 02:02:29;;;;;;;5.35;3.20;;;-1.40;99.90;;;;;;5064002;28;20043;-81
2024/01/05 02:04:56;;;;;;;4.90;3.10;;;-1.40;99.90;;;;;;5097194;28;20028;-81
2024/01/05 02:07:22;;;;;;;8.75;4.07;;;-1.40;99.90;;;;;;5098130;28;20410;-81
2024/01/05 02:09:48;;;;;;;10.70;5.20;;;-1.50;99.90;;;;;;5096799;28;20016;-81
2024/01/05 02:12:14;;;;;;;13.40;5.88;;;-1.40;99.90;;;;;;5078685;28;20031;-79
2024/01/05 02:14:40;;;;;;;7.32;4.25;;;-1.40;99.90;;;;;;5097109;28;20074;-79
2024/01/05 02:17:32;;;;;;;5.95;2.90;;;-1.40;99.90;;;;;;5097583;28;20063;-79
2024/01/05 02:19:58;;;;;;;3.72;2.20;;;-1.40;99.90;;;;;;5079177;28;20034;-79
2024/01/05 02:22:28;;;;;;;3.22;2.00;;;-1.40;99.90;;;;;;5078966;28;20024;-79
2024/01/05 02:24:53;;;;;;;4.97;2.03;;;-1.50;99.90;;;;;;5078719;28;20101;-79
2024/01/05 02:27:19;;;;;;;4.18;2.17;;;-1.50;99.90;;;;;;5078822;28;20472;-81
2024/01/05 02:29:45;;;;;;;4.13;1.73;;;-1.50;99.90;;;;;;5078442;28;20024;-81
2024/01/05 02:32:10;;;;;;;6.05;2.95;;;-1.50;99.90;;;;;;5044584;28;20104;-80
2024/01/05 02:34:36;;;;;;;5.28;3.33;;;-1.50;99.90;;;;;;5095483;28;20031;-81
2024/01/05 02:37:02;;;;;;;6.43;2.90;;;-1.60;99.90;;;;;;5077781;28;20036;-80
2024/01/05 02:39:27;;;;;;;6.43;3.58;;;-1.70;99.90;;;;;;5095913;28;20035;-80
2024/01/05 02:41:53;;;;;;;13.23;6.18;;;-1.80;99.90;;;;;;5060814;28;20030;-81
2024/01/05 02:44:18;;;;;;;15.27;6.75;;;-1.90;99.90;;;;;;5043870;28;20075;-80
2024/01/05 02:46:44;;;;;;;12.77;7.35;;;-1.90;99.90;;;;;;5078133;28;20077;-80
2024/01/05 02:49:10;;;;;;;17.17;8.35;;;-1.90;99.90;;;;;;5077953;28;20028;-80
2024/01/05 02:51:36;;;;;;;15.18;7.53;;;-1.80;99.90;;;;;;5061146;28;20408;-80
2024/01/05 02:54:01;;;;;;;10.57;4.95;;;-1.80;99.90;;;;;;5096206;28;20051;-80
2024/01/05 02:56:27;;;;;;;7.88;4.07;;;-1.70;99.90;;;;;;5078295;28;20096;-80
2024/01/05 02:58:54;;;;;;;5.15;2.65;;;-1.70;99.90;;;;;;5077602;28;20078;-80
2024/01/05 03:01:19;;;;;;;5.88;2.88;;;-1.70;99.90;;;;;;5096837;28;20031;-80
2024/01/05 03:03:49;;;;;;;4.75;2.70;;;-1.60;99.90;;;;;;5077601;28;20028;-80
2024/01/05 03:06:16;;;;;;;4.60;2.58;;;-1.60;99.90;;;;;;5096135;28;20055;-80
2024/01/05 03:08:42;;;;;;;3.83;2.33;;;-1.50;99.90;;;;;;5078334;28;20029;-80
2024/01/05 03:11:08;;;;;;;6.75;2.60;;;-1.50;99.90;;;;;;5096394;28;20024;-80
2024/01/05 03:13:33;;;;;;;5.22;2.72;;;-1.50;99.90;;;;;;5077379;28;20031;-80
2024/01/05 03:16:00;;;;;;;5.63;3.00;;;-1.50;99.90;;;;;;5077156;28;20403;-80
2024/01/05 03:18:26;;;;;;;4.78;2.20;;;-1.60;99.90;;;;;;5077664;28;20044;-80
2024/01/05 03:20:51;;;;;;;4.45;2.58;;;-1.60;99.90;;;;;;5095720;28;20035;-80
2024/01/05 03:23:17;;;;;;;3.63;2.40;;;-1.60;99.90;;;;;;5096173;28;20039;-80
2024/01/05 03:25:44;;;;;;;6.80;2.67;;;-1.60;99.90;;;;;;5095729;28;20130;-80
2024/01/05 03:28:10;;;;;;;5.20;2.72;;;-1.60;99.90;;;;;;5095585;28;20074;-80
2024/01/05 03:30:38;;;;;;;6.35;2.67;;;-1.60;99.90;;;;;;5044083;28;20032;-80
2024/01/05 03:33:03;;;;;;;7.32;3.00;;;-1.60;99.90;;;;;;5077531;28;20046;-80
2024/01/05 03:35:29;;;;;;;5.05;2.95;;;-1.60;99.90;;;;;;5060251;28;20487;-80
2024/01/05 03:37:55;;;;;;;6.45;3.10;;;-1.70;99.90;;;;;;5095552;28;20024;-80
2024/01/05 03:40:21;;;;;;;5.28;2.97;;;-1.70;99.90;;;;;;5096401;28;20021;-80
2024/01/05 03:42:47;;;;;;;6.25;3.33;;;-1.70;99.90;;;;;;5095452;28;20062;-80
2024/01/05 03:45:13;;;;;;;6.50;3.00;;;-1.70;99.90;;;;;;5077375;28;20032;-80
2024/01/05 03:47:39;;;;;;;5.35;2.60;;;-1.70;99.90;;;;;;5096585;28;20024;-80
2024/01/05 03:50:05;;;;;;;6.10;2.67;;;-1.70;99.90;;;;;;5079530;28;20545;-80
2024/01/05 03:52:31;;;;;;;5.20;3.20;;;-1.70;99.90;;;;;;5097647;28;20031;-81
2024/01/05 03:54:56;;;;;;;6.18;3.38;;;-1.70;99.90;;;;;;5080043;28;20365;-81
2024/01/05 03:57:23;;;;;;;8.52;3.65;;;-1.80;99.90;;;;;;5079790;28;20032;-81
2024/01/05 03:59:49;;;;;;;5.70;3.08;;;-1.80;99.90;;;;;;5097916;28;20115;-81
2024/01/05 04:02:15;;;;;;;7.25;3.05;;;-1.90;99.90;;;;;;5098735;28;20036;-81
2024/01/05 04:04:41;;;;;;;6.13;2.65;;;-1.90;99.90;;;;;;5080116;28;20081;-81
2024/01/05 04:07:07;;;;;;;6.15;2.85;;;-1.90;99.90;;;;;;5098306;28;20025;-81
2024/01/05 04:09:32;;;;;;;7.47;3.72;;;-2.00;99.90;;;;;;5098413;28;20024;-81
2024/01/05 04:11:58;;;;;;;7.80;3.33;;;-2.00;99.90;;;;;;5079723;28;20095;-81
2024/01/05 04:14:24;;;;;;;7.15;3.72;;;-2.00;99.90;;;;;;5060666;28;20035;-81
2024/01/05 04:16:50;;;;;;;7.43;4.15;;;-2.00;99.90;;;;;;5077486;28;20028;-80
2024/01/05 04:19:16;;;;;;;11.40;5.18;;;-2.10;99.90;;;;;;5095857;28;20059;-80
2024/01/05 04:21:42;;;;;;;8.40;3.92;;;-2.20;99.90;;;;;;5061506;28;20032;-80
2024/01/05 04:24:08;;;;;;;6.93;3.92;;;-2.20;99.90;;;;;;5078809;28;20028;-80
2024/01/05 04:26:35;;;;;;;5.75;3.25;;;-2.10;99.90;;;;;;5095892;28;20020;-81
2024/01/05 04:29:01;;;;;;;7.65;3.17;;;-2.10;99.90;;;;;;5096469;28;20016;-81
2024/01/05 04:31:27;;;;;;;5.35;2.55;;;-2.00;99.90;;;;;;5098952;28;20030;-81
2024/01/05 04:33:54;;;;;;;6.03;2.30;;;-2.00;99.90;;;;;;5080679;28;20482;-81
2024/01/05 04:36:20;;;;;;;4.30;2.40;;;-2.00;99.90;;;;;;5064103;28;20036;-80
2024/01/05 04:38:46;;;;;;;3.95;2.20;;;-2.00;99.90;;;;;;5081148;28;20038;-80
2024/01/05 04:41:13;;;;;;;3.78;1.92;;;-2.10;99.90;;;;;;5099653;28;20025;-80
2024/01/05 04:43:39;;;;;;;3.42;1.95;;;-2.20;99.90;;;;;;5080601;28;20352;-80
2024/01/05 04:46:06;;;;;;;6.82;2.80;;;-2.10;99.90;;;;;;5081068;28;20024;-80
2024/01/05 04:48:32;;;;;;;5.75;2.97;;;-2.10;99.90;;;;;;5098875;28;20023;-80
2024/01/05 04:50:58;;;;;;;6.90;3.20;;;-2.10;99.90;;;;;;5080715;28;20103;-80
2024/01/05 04:53:23;;;;;;;5.55;3.00;;;-2.00;99.90;;;;;;5081038;28;20024;-80
2024/01/05 04:55:49;;;;;;;7.03;3.35;;;-2.00;99.90;;;;;;5080518;28;20036;-80
2024/01/05 04:58:14;;;;;;;4.30;2.42;;;-2.00;99.90;;;;;;5080883;28;20565;-80
2024/01/05 05:00:40;;;;;;;7.20;2.58;;;-2.00;99.90;;;;;;5080987;28;20150;-80
2024/01/05 05:03:06;;;;;;;4.15;2.08;;;-1.90;99.90;;;;;;5065947;28;20031;-80
2024/01/05 05:05:31;;;;;;;4.38;2.13;;;-1.90;99.90;;;;;;5067700;28;20028;-80
2024/01/05 05:07:57;;;;;;;3.97;2.28;;;-2.00;99.90;;;;;;5067473;28;20162;-80
2024/01/05 05:10:23;;;;;;;4.00;1.80;;;-2.00;99.90;;;;;;5067889;28;20480;-80
2024/01/05 05:12:49;;;;;;;4.70;2.30;;;-2.00;99.90;;;;;;5083360;28;20039;-79
2024/01/05 05:15:15;;;;;;;4.65;2.40;;;-2.00;99.90;;;;;;5083415;28;20086;-80
2024/01/05 05:17:41;;;;;;;4.03;1.65;;;-2.00;99.90;;;;;;5064929;28;20028;-80
2024/01/05 05:20:07;;;;;;;4.30;1.83;;;-2.00;99.90;;;;;;5079928;28;20087;-80
2024/01/05 05:22:33;;;;;;;4.50;2.30;;;-2.00;99.90;;;;;;5097159;28;20372;-80
2024/01/05 05:24:59;;;;;;;9.02;4.68;;;-2.00;99.90;;;;;;5079349;28;20032;-80
2024/01/05 05:27:25;;;;;;;14.07;6.40;;;-2.00;99.90;;;;;;5097891;28;20077;-80
2024/01/05 05:29:50;;;;;;;15.07;6.88;;;-2.00;99.90;;;;;;5079396;28;20082;-80
2024/01/05 05:32:16;;;;;;;21.35;9.35;;;-2.00;99.90;;;;;;5046810;28;20025;-80
2024/01/05 05:34:43;;;;;;;20.27;8.52;;;-2.00;99.90;;;;;;5079043;28;20076;-80
2024/01/05 05:37:09;;;;;;;11.07;5.57;;;-2.00;99.90;;;;;;5097608;28;20035;-80
2024/01/05 05:39:35;;;;;;;11.30;5.75;;;-1.90;99.90;;;;;;5079083;28;20032;-80
2024/01/05 05:42:00;;;;;;;11.93;5.55;;;-2.00;99.90;;;;;;5062854;28;20027;-80
2024/01/05 05:44:26;;;;;;;6.75;3.63;;;-1.90;99.90;;;;;;5062096;28;20032;-80
2024/01/05 05:46:52;;;;;;;5.60;3.10;;;-1.90;99.90;;;;;;5078605;28;20547;-80
2024/01/05 05:49:17;;;;;;;6.43;3.22;;;-1.90;99.90;;;;;;5096544;28;20031;-81
2024/01/05 05:51:44;;;;;;;8.68;3.15;;;-1.90;99.90;;;;;;5078639;28;20020;-81
2024/01/05 05:54:09;;;;;;;4.32;2.55;;;-1.90;99.90;;;;;;5078562;28;20024;-81
2024/01/05 05:56:35;;;;;;;4.60;1.95;;;-1.90;99.90;;;;;;5078526;28;20074;-81
2024/01/05 05:59:01;;;;;;;4.95;2.42;;;-1.90;99.90;;;;;;5078469;28;20168;-81
2024/01/05 06:01:26;;;;;;;4.22;2.15;;;-1.80;99.90;;;;;;5061929;28;20446;-80
2024/01/05 06:03:52;;;;;;;7.00;2.67;;;-1.80;99.90;;;;;;5096806;28;20414;-80
2024/01/05 06:06:23;;;;;;;4.18;2.47;;;-1.90;99.90;;;;;;5078811;28;20021;-80
2024/01/05 06:08:51;;;;;;;4.18;2.60;;;-1.90;99.90;;;;;;5078526;28;20028;-80
2024/01/05 06:11:17;;;;;;;6.18;4.05;;;-1.90;99.90;;;;;;5078209;28;20036;-80
2024/01/05 06:13:44;;;;;;;9.00;4.75;;;-1.90;99.90;;;;;;5061378;28;20104;-81
2024/01/05 06:16:10;;;;;;;8.68;4.32;;;-1.90;99.90;;;;;;5078189;28;20087;-80
2024/01/05 06:18:36;;;;;;;8.25;4.20;;;-1.90;99.90;;;;;;5078379;28;20082;-80
2024/01/05 06:21:02;;;;;;;8.05;3.83;;;-1.90;99.90;;;;;;5078212;28;20387;-80
2024/01/05 06:23:27;;;;;;;8.80;3.70;;;-1.90;99.90;;;;;;5096041;28;20035;-79
2024/01/05 06:25:53;;;;;;;13.85;5.88;;;-1.90;99.90;;;;;;5095773;28;20020;-80
2024/01/05 06:28:19;;;;;;;11.13;4.50;;;-1.90;99.90;;;;;;5096183;28;20028;-78
2024/01/05 06:30:44;;;;;;;11.60;4.88;;;-1.90;99.90;;;;;;5095338;28;20077;-78
2024/01/05 06:33:10;;;;;;;11.63;5.50;;;-1.90;99.90;;;;;;5061083;28;20081;-79
2024/01/05 06:35:36;;;;;;;8.65;3.63;;;-1.90;99.90;;;;;;5078670;28;20033;-79
2024/01/05 06:38:01;;;;;;;7.57;3.30;;;-1.90;99.90;;;;;;5079213;28;20031;-79
2024/01/05 06:40:27;;;;;;;5.57;2.40;;;-1.90;99.90;;;;;;5098629;28;20028;-80
2024/01/05 06:42:54;;;;;;;3.65;1.90;;;-1.90;99.90;;;;;;5046991;28;20474;-79
2024/01/05 06:45:19;;;;;;;4.90;2.03;;;-1.90;99.90;;;;;;5060634;28;20036;-77
2024/01/05 06:47:45;;;;;;;5.40;2.88;;;-1.90;99.90;;;;;;5077313;28;20030;-79
2024/01/05 06:50:11;;;;;;;5.50;2.30;;;-1.90;99.90;;;;;;5079027;28;20050;-79
2024/01/05 06:52:37;;;;;;;4.55;2.47;;;-1.90;99.90;;;;;;5097689;28;20052;-80
2024/01/05 06:55:03;;;;;;;8.15;2.85;;;-1.90;99.90;;;;;;5080277;28;20032;-81
2024/01/05 06:57:31;;;;;;;5.85;2.80;;;-1.90;99.90;;;;;;5099018;28;20081;-80
2024/01/05 06:59:57;;;;;;;5.25;2.42;;;-1.90;99.90;;;;;;5085788;28;20047;-80
2024/01/05 07:02:23;;;;;;;6.25;2.60;;;-1.90;99.90;;;;;;5076325;28;20024;-80
2024/01/05 07:04:48;;;;;;;3.15;1.75;;;-1.80;99.90;;;;;;5058250;28;20484;-80
2024/01/05 07:07:14;;;;;;;3.28;1.88;;;-1.80;99.90;;;;;;5041979;28;20024;-80
2024/01/05 07:09:40;;;;;;;4.03;2.05;;;-1.80;99.90;;;;;;5041497;28;20036;-80
2024/01/05 07:12:06;;;;;;;3.58;2.42;;;-1.80;99.90;;;;;;5058685;28;20068;-80
2024/01/05 07:14:32;;;;;;;3.10;1.98;;;-1.70;99.90;;;;;;5042177;28;20030;-80
2024/01/05 07:16:58;;;;;;;4.82;1.88;;;-1.70;99.90;;;;;;5042038;28;20033;-80
2024/01/05 07:19:24;;;;;;;4.05;2.50;;;-1.80;99.90;;;;;;5059124;28;20503;-80
2024/01/05 07:21:50;;;;;;;4.63;2.38;;;-1.80;99.90;;;;;;5076832;28;20028;-80
2024/01/05 07:24:19;;;;;;;5.75;2.85;;;-1.70;99.90;;;;;;5058544;28;20059;-80
2024/01/05 07:26:45;;;;;;;6.50;2.80;;;-1.80;99.90;;;;;;5058499;28;20028;-80
2024/01/05 07:29:11;;;;;;;5.25;2.60;;;-1.80;99.90;;;;;;5076619;28;20533;-80
2024/01/05 07:31:37;;;;;;;4.72;2.67;;;-1.80;99.90;;;;;;5076147;28;20488;-80
2024/01/05 07:34:03;;;;;;;4.38;2.60;;;-1.80;99.90;;;;;;5058533;28;20070;-79
2024/01/05 07:36:29;;;;;;;4.43;2.35;;;-1.70;99.90;;;;;;5076642;28;20256;-80
2024/01/05 07:38:59;;;;;;;5.57;2.58;;;-1.70;99.90;;;;;;5076776;28;20024;-80
2024/01/05 07:41:25;;;;;;;5.13;3.15;;;-1.70;99.90;;;;;;5058679;28;20025;-80
2024/01/05 07:43:51;;;;;;;4.65;2.80;;;-1.60;99.90;;;;;;5076249;28;20384;-80
2024/01/05 07:46:17;;;;;;;6.55;2.97;;;-1.60;99.90;;;;;;5058621;28;20021;-80
2024/01/05 07:48:43;;;;;;;6.97;3.55;;;-1.60;99.90;;;;;;5095729;28;20480;-80
2024/01/05 07:51:10;;;;;;;20.67;7.40;;;-1.60;99.90;;;;;;5060571;28;20024;-80
2024/01/05 07:53:36;;;;;;;17.30;7.57;;;-1.70;99.90;;;;;;5078340;28;20028;-80
2024/01/05 07:56:02;;;;;;;18.48;7.63;;;-1.70;99.90;;;;;;5075731;28;20484;-79
2024/01/05 07:58:28;;;;;;;13.18;6.43;;;-1.70;99.90;;;;;;5075318;28;20028;-81
2024/01/05 08:00:54;;;;;;;11.45;5.88;;;-1.70;99.90;;;;;;5041206;28;20029;-80
2024/01/05 08:03:21;;;;;;;10.52;6.07;;;-1.70;99.90;;;;;;5059907;28;20051;-79
2024/01/05 08:05:47;;;;;;;8.65;4.57;;;-1.70;99.90;;;;;;5061190;28;20048;-80
2024/01/05 08:08:13;;;;;;;7.97;4.53;;;-1.60;99.90;;;;;;5079653;28;20021;-80
2024/01/05 08:10:39;;;;;;;9.05;4.18;;;-1.60;99.90;;;;;;5061434;28;20028;-80
2024/01/05 08:13:04;;;;;;;7.18;4.47;;;-1.60;99.90;;;;;;5028423;28;20025;-80
2024/01/05 08:15:30;;;;;;;7.90;4.05;;;-1.60;99.90;;;;;;5044323;28;20035;-80
2024/01/05 08:17:56;;;;;;;7.25;4.10;;;-1.60;99.90;;;;;;5092166;28;20030;-80
2024/01/05 08:20:22;;;;;;;8.65;4.43;;;-1.60;99.90;;;;;;5065019;28;20028;-79
2024/01/05 08:22:48;;;;;;;6.28;3.72;;;-1.60;99.90;;;;;;5064775;28;20032;-80
2024/01/05 08:25:14;;;;;;;8.60;4.30;;;-1.50;99.90;;;;;;5081771;28;20024;-80
2024/01/05 08:27:40;;;;;;;6.70;4.32;;;-1.40;99.90;;;;;;5099735;28;20029;-80
2024/01/05 08:30:10;;;;;;;7.72;4.18;;;-1.40;99.90;;;;;;5081789;28;20024;-80
2024/01/05 08:32:37;;;;;;;6.57;3.60;;;-1.30;99.90;;;;;;5081015;28;20020;-80
2024/01/05 08:35:03;;;;;;;6.43;3.40;;;-1.20;99.90;;;;;;5081663;28;20028;-80
2024/01/05 08:37:29;;;;;;;6.55;3.30;;;-1.20;99.90;;;;;;5081775;28;20024;-80
2024/01/05 08:39:55;;;;;;;7.45;3.97;;;-1.10;99.90;;;;;;5064806;28;20067;-80
2024/01/05 08:42:20;;;;;;;6.88;3.28;;;-1.10;99.90;;;;;;5064419;28;20036;-80
2024/01/05 08:44:46;;;;;;;6.72;3.15;;;-1.10;99.90;;;;;;5080785;28;20084;-80
2024/01/05 08:47:13;;;;;;;6.28;2.92;;;-1.10;99.90;;;;;;5064249;28;20024;-80
2024/01/05 08:49:38;;;;;;;4.10;2.60;;;-1.00;99.90;;;;;;5099833;28;20391;-80
2024/01/05 08:52:04;;;;;;;7.05;2.65;;;-1.00;99.90;;;;;;5098888;28;20099;-80
2024/01/05 08:54:30;;;;;;;4.72;2.40;;;-1.00;99.90;;;;;;5099752;28;20024;-80
2024/01/05 08:56:56;;;;;;;4.90;2.13;;;-1.00;99.90;;;;;;5081349;28;20028;-80
2024/01/05 08:59:22;;;;;;;4.43;2.63;;;-0.90;99.90;;;;;;5099216;28;20034;-80
2024/01/05 09:01:48;;;;;;;4.07;2.30;;;-0.90;99.90;;;;;;5064508;28;20123;-80
2024/01/05 09:04:14;;;;;;;4.45;2.55;;;-0.80;99.90;;;;;;5099001;28;20032;-80
2024/01/05 09:06:41;;;;;;;7.30;3.10;;;-0.80;99.90;;;;;;5099741;28;20551;-80
2024/01/05 09:09:06;;;;;;;6.03;3.60;;;-0.70;99.90;;;;;;5080568;28;20085;-80
2024/01/05 09:11:32;;;;;;;6.05;3.60;;;-0.70;99.90;;;;;;5081078;28;20392;-80
2024/01/05 09:13:58;;;;;;;5.65;3.33;;;-0.70;99.90;;;;;;5097990;28;20043;-80
2024/01/05 09:16:23;;;;;;;8.70;3.70;;;-0.60;99.90;;;;;;5064281;28;20035;-80
2024/01/05 09:18:49;;;;;;;7.10;3.50;;;-0.60;99.90;;;;;;5064265;28;20487;-80
2024/01/05 09:21:15;;;;;;;7.05;3.90;;;-0.50;99.90;;;;;;5080742;28;20166;-80
2024/01/05 09:23:41;;;;;;;8.40;4.18;;;-0.50;99.90;;;;;;5098787;28;20028;-80
2024/01/05 09:26:16;;;;;;;13.75;7.25;;;-0.40;99.90;;;;;;5080707;28;20028;-80
2024/01/05 09:28:42;;;;;;;16.20;7.22;;;-0.40;99.90;;;;;;5079897;28;20017;-80
2024/01/05 09:31:09;;;;;;;14.57;7.18;;;-0.30;99.90;;;;;;5080362;28;20024;-80
2024/01/05 09:33:35;;;;;;;11.50;5.90;;;-0.30;99.90;;;;;;5063560;28;20430;-80
2024/01/05 09:36:02;;;;;;;13.70;7.70;;;-0.30;99.90;;;;;;5080429;28;20024;-80
2024/01/05 09:38:27;;;;;;;12.60;6.32;;;-0.20;99.90;;;;;;5098727;28;20020;-80
2024/01/05 09:40:54;;;;;;;15.60;8.32;;;-0.20;99.90;;;;;;5079826;28;20030;-80
2024/01/05 09:43:23;;;;;;;10.30;6.00;;;-0.10;99.90;;;;;;5097972;28;20024;-80
2024/01/05 09:45:55;;;;;;;11.60;6.43;;;0.00;99.90;;;;;;5080176;28;20040;-80
2024/01/05 09:48:22;;;;;;;13.73;6.15;;;0.00;99.90;;;;;;5097997;28;20024;-80
2024/01/05 09:50:53;;;;;;;10.30;5.78;;;0.00;99.90;;;;;;5098650;28;20031;-80
2024/01/05 09:53:19;;;;;;;13.82;5.47;;;0.00;99.90;;;;;;5097968;28;20553;-80
2024/01/05 09:55:49;;;;;;;8.23;4.60;;;0.10;99.90;;;;;;5098183;28;20040;-80
2024/01/05 09:58:17;;;;;;;9.40;5.38;;;0.10;99.90;;;;;;5099327;28;20370;-80
2024/01/05 10:00:46;;;;;;;9.10;3.63;;;0.20;99.90;;;;;;5079791;28;20483;-80
2024/01/05 10:03:33;;;;;;;6.32;3.47;;;0.30;99.90;;;;;;5097760;28;20077;-80
2024/01/05 10:05:59;;;;;;;8.13;3.90;;;0.30;99.90;;;;;;5097492;28;20030;-80
2024/01/05 10:08:25;;;;;;;7.95;3.47;;;0.40;99.90;;;;;;5063329;28;20028;-80
2024/01/05 10:10:53;;;;;;;6.43;3.22;;;0.50;99.90;;;;;;5097988;28;20533;-80
2024/01/05 10:13:19;;;;;;;5.55;3.50;;;0.60;99.90;;;;;;5097530;28;20107;-80
2024/01/05 10:15:56;;;;;;;6.40;3.50;;;0.70;99.90;;;;;;5062938;28;20491;-80
2024/01/05 10:18:23;;;;;;;5.80;3.67;;;0.80;99.90;;;;;;5079059;28;20034;-80
2024/01/05 10:20:49;;;;;;;7.13;3.40;;;0.90;99.90;;;;;;5078865;28;20074;-80
2024/01/05 10:23:18;;;;;;;8.13;3.55;;;1.00;99.90;;;;;;5078986;28;20020;-80
2024/01/05 10:25:46;;;;;;;6.35;3.60;;;1.00;99.90;;;;;;5096988;28;20464;-78
2024/01/05 10:28:29;;;;;;;6.53;2.92;;;1.10;99.90;;;;;;5096868;28;20020;-78
2024/01/05 10:31:11;;;;;;;6.55;2.42;;;1.10;99.90;;;;;;5096827;28;20066;-79
2024/01/05 10:33:57;;;;;;;5.18;2.20;;;1.10;99.90;;;;;;5096565;28;20098;-78
2024/01/05 10:36:25;;;;;;;5.35;2.35;;;1.20;99.90;;;;;;5096663;28;20032;-78
2024/01/05 10:38:51;;;;;;;5.38;2.50;;;1.20;99.90;;;;;;5097819;28;20430;-79
2024/01/05 10:41:18;;;;;;;4.75;2.35;;;1.20;99.90;;;;;;5078425;28;20020;-78
2024/01/05 10:43:44;;;;;;;5.03;2.72;;;1.20;99.90;;;;;;5096051;28;20032;-78
2024/01/05 10:46:17;;;;;;;5.28;2.20;;;1.30;99.90;;;;;;5096668;28;20030;-78
2024/01/05 10:48:43;;;;;;;5.70;2.75;;;1.40;99.90;;;;;;5099091;28;20048;-79
2024/01/05 10:51:14;;;;;;;6.43;2.78;;;1.40;99.90;;;;;;5079850;28;20365;-79
2024/01/05 10:53:40;;;;;;;;;;;1.50;99.90;;;;;;5098516;28;20069;-80
2024/01/05 10:56:06;;;;;;;6.60;3.42;;;1.50;99.90;;;;;;5079307;28;19908;-78
2024/01/05 10:58:32;;;;;;;8.40;3.35;;;1.50;99.90;;;;;;5079480;28;20047;-78
2024/01/05 11:01:02;;;;;;;4.97;2.63;;;1.50;99.90;;;;;;5097841;28;20032;-78
2024/01/05 11:03:38;;;;;;;5.45;2.45;;;1.50;99.90;;;;;;5097364;28;20032;-78
2024/01/05 11:06:09;;;;;;;4.72;2.30;;;1.50;99.90;;;;;;5082006;28;20058;-80
2024/01/05 11:08:44;;;;;;;5.63;3.22;;;1.50;99.90;;;;;;5095284;28;20016;-81
2024/01/05 11:11:18;;;;;;;6.68;3.17;;;1.50;99.90;;;;;;5100345;28;20024;-80
2024/01/05 11:13:59;;;;;;;6.60;3.10;;;1.50;99.90;;;;;;5099673;28;20028;-80
2024/01/05 11:16:28;;;;;;;;;;;1.60;99.90;;;;;;5098848;28;20016;-80
2024/01/05 11:18:59;;;;;;;10.48;3.40;;;1.70;99.90;;;;;;5080281;28;19912;-80
2024/01/05 11:21:37;;;;;;;5.82;2.92;;;1.70;99.90;;;;;;5076426;28;20077;-80
2024/01/05 11:24:03;;;;;;;5.97;3.00;;;1.80;99.90;;;;;;5076668;28;20032;-81
2024/01/05 11:26:32;;;;;;;6.05;3.20;;;1.80;99.90;;;;;;5059893;28;20062;-80
2024/01/05 11:28:57;;;;;;;8.20;4.30;;;1.90;99.90;;;;;;5060447;28;20025;-80
2024/01/05 11:31:45;;;;;;;7.15;3.20;;;1.90;99.90;;;;;;5060619;28;20059;-80
2024/01/05 11:34:35;;;;;;;8.18;3.75;;;1.90;99.90;;;;;;5095274;28;20043;-80
2024/01/05 11:37:02;;;;;;;17.98;9.10;;;1.90;99.90;;;;;;5078063;28;20055;-80
2024/01/05 11:39:53;;;;;;;14.90;6.25;;;2.00;99.90;;;;;;5099010;28;20472;-80
2024/01/05 11:42:25;;;;;;;7.40;3.60;;;2.00;99.90;;;;;;5089444;28;20040;-80
2024/01/05 11:44:55;;;;;;;7.07;3.30;;;2.00;99.90;;;;;;5099038;28;20024;-78
2024/01/05 11:47:40;;;;;;;10.17;4.50;;;2.00;99.90;;;;;;5082043;28;20383;-78
2024/01/05 11:50:26;;;;;;;9.07;4.30;;;2.10;99.90;;;;;;5100543;28;20103;-78
2024/01/05 11:53:10;;;;;;;6.78;3.53;;;2.10;99.90;;;;;;5082620;28;20020;-78
2024/01/05 11:55:40;;;;;;;7.65;3.92;;;2.10;99.90;;;;;;5099165;28;20015;-78
2024/01/05 11:58:19;;;;;;;6.72;3.55;;;2.10;99.90;;;;;;5099094;28;20024;-78
2024/01/05 12:00:46;;;;;;;7.03;4.60;;;2.10;99.90;;;;;;5080419;28;20493;-78
2024/01/05 12:03:13;;;;;;;28.13;8.55;;;2.10;99.90;;;;;;5098903;28;20039;-78
2024/01/05 12:05:39;;;;;;;10.48;4.63;;;2.20;99.90;;;;;;5098919;28;20031;-78
2024/01/05 12:08:11;;;;;;;7.55;4.25;;;2.20;99.90;;;;;;5098976;28;20036;-78
2024/01/05 12:10:39;;;;;;;9.93;4.63;;;2.20;99.90;;;;;;5080573;28;20028;-78
2024/01/05 12:13:05;;;;;;;12.10;4.20;;;2.30;99.90;;;;;;5098511;28;20024;-78
2024/01/05 12:15:31;;;;;;;9.02;4.63;;;2.30;99.90;;;;;;5080255;28;20024;-78
2024/01/05 12:18:11;;;;;;;8.38;4.72;;;2.30;99.90;;;;;;5098517;28;20032;-78
2024/01/05 12:20:36;;;;;;;11.05;4.82;;;2.30;99.90;;;;;;5098519;28;20023;-78
2024/01/05 12:23:03;;;;;;;10.35;5.18;;;2.40;99.90;;;;;;5080655;28;20032;-78
2024/01/05 12:25:30;;;;;;;10.10;4.68;;;2.40;99.90;;;;;;5098687;28;20032;-78
2024/01/05 12:27:58;;;;;;;7.38;4.53;;;2.30;99.90;;;;;;5098624;28;20098;-78
2024/01/05 12:30:24;;;;;;;9.70;4.93;;;2.40;99.90;;;;;;5098424;28;20027;-79
2024/01/05 12:32:49;;;;;;;16.40;7.13;;;2.30;99.90;;;;;;5098599;28;20433;-78
2024/01/05 12:35:16;;;;;;;17.90;7.80;;;2.30;99.90;;;;;;5098800;28;20027;-80
2024/01/05 12:37:52;;;;;;;15.85;6.90;;;2.30;99.90;;;;;;5100180;28;20025;-80
2024/01/05 12:40:26;;;;;;;12.23;4.88;;;2.30;99.90;;;;;;5100522;28;20035;-80
2024/01/05 12:42:53;;;;;;;8.45;4.18;;;2.30;99.90;;;;;;5081867;28;20479;-80
2024/01/05 12:45:23;;;;;;;8.68;3.50;;;2.30;99.90;;;;;;5099748;28;20036;-80
2024/01/05 12:47:52;;;;;;;6.73;3.80;;;2.40;99.90;;;;;;5100207;28;20111;-81